Time;durP1;ratioP1;P1;durP2;ratioP2;P2;SDS_P1;SDS_P2;PMS_P1;PMS_P2;Temp;Humidity;BMP_temperature;BMP_pressure;BME280_temperature;BME280_humidity;BME280_pressure;Samples;Min_cycle;Max_cycle;Signal;HPM_P1;HPM_P2
2023/09/07 00:00:25;;;;;;;3.92;3.40;;;19.40;99.90;;;;;;2483397;23;20440;-73
2023/09/07 00:01:26;;;;;;;5.97;3.40;;;19.40;99.90;;;;;;2494691;23;20008;-73
2023/09/07 00:02:27;;;;;;;5.07;3.70;;;19.40;99.90;;;;;;2495630;23;20078;-73
2023/09/07 00:03:27;;;;;;;4.72;3.60;;;19.40;99.90;;;;;;2493785;23;20038;-73
2023/09/07 00:04:28;;;;;;;3.80;3.40;;;19.40;99.90;;;;;;2495750;23;19999;-73
2023/09/07 00:05:29;;;;;;;5.78;3.55;;;19.40;99.90;;;;;;2493795;23;20058;-73
2023/09/07 00:06:29;;;;;;;4.38;3.75;;;19.40;99.90;;;;;;2482943;23;20110;-73
2023/09/07 00:07:30;;;;;;;6.63;3.50;;;19.40;99.90;;;;;;2482812;23;20008;-73
2023/09/07 00:08:32;;;;;;;5.32;3.25;;;19.30;99.90;;;;;;2495117;23;20007;-73
2023/09/07 00:09:33;;;;;;;4.95;3.42;;;19.30;99.90;;;;;;2494210;23;20014;-73
2023/09/07 00:10:37;;;;;;;3.78;2.90;;;19.30;99.90;;;;;;2495803;23;20059;-73
2023/09/07 00:11:38;;;;;;;3.80;3.33;;;19.30;99.90;;;;;;2495346;23;20007;-73
2023/09/07 00:12:39;;;;;;;4.57;3.47;;;19.30;99.90;;;;;;2495498;23;20575;-73
2023/09/07 00:13:39;;;;;;;3.80;3.38;;;19.30;99.90;;;;;;2495075;23;20011;-73
2023/09/07 00:14:40;;;;;;;5.28;3.45;;;19.30;99.90;;;;;;2494681;23;20015;-73
2023/09/07 00:15:41;;;;;;;4.00;3.30;;;19.30;99.90;;;;;;2495688;23;20079;-73
2023/09/07 00:16:41;;;;;;;4.15;3.13;;;19.20;99.90;;;;;;2495067;23;20011;-73
2023/09/07 00:17:42;;;;;;;3.58;3.28;;;19.20;99.90;;;;;;2494338;23;20038;-73
2023/09/07 00:18:42;;;;;;;4.78;3.40;;;19.20;99.90;;;;;;2494957;23;20010;-73
2023/09/07 00:19:44;;;;;;;5.15;3.42;;;19.20;99.90;;;;;;2494083;23;20571;-73
2023/09/07 00:20:44;;;;;;;4.18;3.60;;;19.20;99.90;;;;;;2495856;23;20618;-73
2023/09/07 00:21:45;;;;;;;5.03;3.47;;;19.20;99.90;;;;;;2495373;23;20357;-72
2023/09/07 00:22:45;;;;;;;4.55;3.50;;;19.20;99.90;;;;;;2494485;23;20011;-73
2023/09/07 00:23:46;;;;;;;4.35;3.40;;;19.20;99.90;;;;;;2495555;23;20090;-73
2023/09/07 00:24:46;;;;;;;5.32;3.60;;;19.20;99.90;;;;;;2494965;23;20059;-73
2023/09/07 00:25:47;;;;;;;5.82;3.75;;;19.20;99.90;;;;;;2494779;23;20015;-73
2023/09/07 00:26:47;;;;;;;7.50;3.72;;;19.20;99.90;;;;;;2493549;23;20014;-73
2023/09/07 00:27:48;;;;;;;4.78;3.80;;;19.10;99.90;;;;;;2494914;23;20003;-73
2023/09/07 00:28:48;;;;;;;3.40;3.10;;;19.10;99.90;;;;;;2494647;23;20010;-73
2023/09/07 00:29:49;;;;;;;4.38;3.53;;;19.10;99.90;;;;;;2495016;23;20009;-73
2023/09/07 00:30:49;;;;;;;4.38;3.30;;;19.10;99.90;;;;;;2495366;23;20078;-73
2023/09/07 00:31:50;;;;;;;4.05;3.65;;;19.10;99.90;;;;;;2495412;23;20406;-73
2023/09/07 00:32:51;;;;;;;5.93;4.00;;;19.10;99.90;;;;;;2495291;23;20007;-72
2023/09/07 00:33:51;;;;;;;4.22;3.40;;;19.10;99.90;;;;;;2495328;23;20336;-73
2023/09/07 00:34:52;;;;;;;4.55;3.22;;;19.10;99.90;;;;;;2494785;23;20003;-73
2023/09/07 00:35:52;;;;;;;4.05;3.65;;;19.10;99.90;;;;;;2495512;23;20042;-73
2023/09/07 00:36:53;;;;;;;5.90;3.40;;;19.00;99.90;;;;;;2495096;23;20003;-73
2023/09/07 00:37:54;;;;;;;5.35;3.58;;;19.00;99.90;;;;;;2494808;23;20013;-73
2023/09/07 00:38:54;;;;;;;6.57;4.10;;;19.10;99.90;;;;;;2493173;23;20054;-73
2023/09/07 00:39:55;;;;;;;3.92;3.53;;;19.00;99.90;;;;;;2495135;23;20020;-73
2023/09/07 00:40:56;;;;;;;4.00;3.63;;;19.00;99.90;;;;;;2494643;23;20003;-72
2023/09/07 00:41:56;;;;;;;5.78;3.47;;;19.00;99.90;;;;;;2495181;23;20013;-72
2023/09/07 00:42:59;;;;;;;4.30;3.60;;;19.00;99.90;;;;;;2494726;23;19999;-73
2023/09/07 00:43:59;;;;;;;6.10;4.00;;;19.00;99.90;;;;;;2495443;23;20000;-73
2023/09/07 00:45:00;;;;;;;3.88;3.58;;;19.00;99.90;;;;;;2482265;23;20011;-73
2023/09/07 00:46:01;;;;;;;3.88;3.17;;;19.00;99.90;;;;;;2482789;23;20091;-73
2023/09/07 00:47:02;;;;;;;4.10;3.70;;;19.00;99.90;;;;;;2494931;23;20010;-73
2023/09/07 00:48:03;;;;;;;3.92;3.53;;;19.00;99.90;;;;;;2482620;23;20086;-73
2023/09/07 00:49:04;;;;;;;4.32;3.20;;;18.90;99.90;;;;;;2481832;23;20015;-73
2023/09/07 00:50:06;;;;;;;3.35;3.05;;;19.00;99.90;;;;;;2482571;23;20004;-73
2023/09/07 00:51:06;;;;;;;7.15;3.60;;;18.90;99.90;;;;;;2493949;23;20062;-73
2023/09/07 00:52:09;;;;;;;4.65;3.50;;;18.90;99.90;;;;;;2495647;23;20059;-73
2023/09/07 00:53:11;;;;;;;5.85;4.38;;;18.90;99.90;;;;;;2494073;23;20009;-72
2023/09/07 00:54:11;;;;;;;3.30;3.00;;;18.90;99.90;;;;;;2495561;23;20426;-73
2023/09/07 00:55:12;;;;;;;5.40;3.47;;;18.90;99.90;;;;;;2495239;23;19999;-73
2023/09/07 00:56:14;;;;;;;4.82;3.65;;;18.90;99.90;;;;;;2495052;23;19995;-73
2023/09/07 00:57:14;;;;;;;5.72;4.05;;;18.90;99.90;;;;;;2482464;23;20016;-73
2023/09/07 00:58:15;;;;;;;5.80;4.03;;;18.90;99.90;;;;;;2482807;23;20004;-73
2023/09/07 00:59:16;;;;;;;3.72;3.42;;;18.80;99.90;;;;;;2493869;23;20440;-73
2023/09/07 01:00:17;;;;;;;3.53;3.22;;;18.80;99.90;;;;;;2495523;23;20006;-73
2023/09/07 01:01:18;;;;;;;4.60;3.60;;;18.90;99.90;;;;;;2494090;23;20090;-73
2023/09/07 01:02:18;;;;;;;11.10;3.83;;;18.80;99.90;;;;;;2495292;23;20010;-73
2023/09/07 01:03:19;;;;;;;3.97;3.47;;;18.80;99.90;;;;;;2482935;23;20051;-73
2023/09/07 01:04:19;;;;;;;4.32;3.92;;;18.80;99.90;;;;;;2481343;23;20429;-73
2023/09/07 01:05:24;;;;;;;4.18;3.70;;;18.80;99.90;;;;;;2482312;23;20011;-73
2023/09/07 01:06:52;;;;;;;5.07;3.53;;;18.80;99.90;;;;;;2483462;23;20039;-73
2023/09/07 01:08:01;;;;;;;5.45;4.00;;;18.80;99.90;;;;;;2495255;23;20083;-73
2023/09/07 01:09:10;;;;;;;4.55;4.15;;;18.80;99.90;;;;;;2493843;23;20122;-73
2023/09/07 01:10:10;;;;;;;5.40;3.83;;;18.70;99.90;;;;;;2495487;23;20003;-73
2023/09/07 01:11:20;;;;;;;14.18;4.53;;;18.80;99.90;;;;;;2494904;23;20006;-73
2023/09/07 01:12:20;;;;;;;5.18;3.50;;;18.80;99.90;;;;;;2494489;23;20011;-72
2023/09/07 01:13:21;;;;;;;4.97;4.32;;;18.70;99.90;;;;;;2495423;23;20046;-72
2023/09/07 01:14:22;;;;;;;3.88;3.17;;;18.80;99.90;;;;;;2495100;23;20007;-72
2023/09/07 01:15:22;;;;;;;3.83;3.42;;;18.70;99.90;;;;;;2495320;23;20011;-73
2023/09/07 01:16:23;;;;;;;4.82;3.38;;;18.70;99.90;;;;;;2494993;23;20031;-73
2023/09/07 01:17:25;;;;;;;3.85;3.55;;;18.70;99.90;;;;;;2494924;23;20007;-72
2023/09/07 01:18:25;;;;;;;3.50;3.20;;;18.70;99.90;;;;;;2495333;23;20011;-73
2023/09/07 01:19:26;;;;;;;4.85;3.38;;;18.70;99.90;;;;;;2493724;23;20078;-72
2023/09/07 01:20:28;;;;;;;4.45;4.05;;;18.70;99.90;;;;;;2482311;23;20011;-72
2023/09/07 01:21:39;;;;;;;5.10;4.20;;;18.70;99.90;;;;;;2482609;23;20012;-73
2023/09/07 01:22:40;;;;;;;4.53;3.88;;;18.70;99.90;;;;;;2494395;23;20368;-73
2023/09/07 01:23:43;;;;;;;4.95;3.92;;;18.70;99.90;;;;;;2494988;23;20313;-73
2023/09/07 01:24:45;;;;;;;5.38;3.88;;;18.70;99.90;;;;;;2495060;23;20090;-73
2023/09/07 01:25:47;;;;;;;6.10;3.88;;;18.70;99.90;;;;;;2494386;23;20011;-72
2023/09/07 01:26:49;;;;;;;4.38;3.92;;;18.70;99.90;;;;;;2494693;23;20004;-72
2023/09/07 01:27:50;;;;;;;5.43;3.88;;;18.60;99.90;;;;;;2494218;23;20086;-72
2023/09/07 01:28:51;;;;;;;4.15;3.75;;;18.60;99.90;;;;;;2481530;23;20079;-72
2023/09/07 01:29:52;;;;;;;4.57;3.38;;;18.60;99.90;;;;;;2481977;23;20027;-72
2023/09/07 01:30:52;;;;;;;6.43;3.45;;;18.70;99.90;;;;;;2481943;23;20011;-72
2023/09/07 01:31:53;;;;;;;4.93;3.65;;;18.60;99.90;;;;;;2495286;23;20444;-72
2023/09/07 01:32:54;;;;;;;5.05;3.58;;;18.60;99.90;;;;;;2494966;23;20010;-72
2023/09/07 01:33:54;;;;;;;6.30;3.88;;;18.70;99.90;;;;;;2494683;23;20389;-72
2023/09/07 01:34:57;;;;;;;4.53;4.05;;;18.60;99.90;;;;;;2495238;23;20499;-72
2023/09/07 01:35:58;;;;;;;4.85;3.83;;;18.70;99.90;;;;;;2494818;23;20497;-72
2023/09/07 01:36:59;;;;;;;3.97;3.60;;;18.60;99.90;;;;;;2495734;23;20650;-73
2023/09/07 01:37:59;;;;;;;4.05;3.70;;;18.60;99.90;;;;;;2495085;23;20026;-72
2023/09/07 01:39:01;;;;;;;3.72;3.42;;;18.60;99.90;;;;;;2494482;23;20475;-72
2023/09/07 01:40:04;;;;;;;4.05;3.65;;;18.60;99.90;;;;;;2495118;23;20051;-72
2023/09/07 01:41:04;;;;;;;4.80;3.83;;;18.60;99.90;;;;;;2494459;23;20008;-72
2023/09/07 01:42:05;;;;;;;5.63;3.90;;;18.60;99.90;;;;;;2495295;23;20038;-72
2023/09/07 01:43:05;;;;;;;5.05;3.92;;;18.60;99.90;;;;;;2493069;23;20049;-72
2023/09/07 01:44:06;;;;;;;4.30;3.60;;;18.60;99.90;;;;;;2493908;23;20455;-72
2023/09/07 01:45:07;;;;;;;4.55;3.83;;;18.60;99.90;;;;;;2495043;23;20316;-72
2023/09/07 01:46:09;;;;;;;5.30;3.80;;;18.60;99.90;;;;;;2493781;23;20027;-72
2023/09/07 01:47:09;;;;;;;4.65;3.85;;;18.50;99.90;;;;;;2494473;23;20003;-72
2023/09/07 01:48:12;;;;;;;4.22;3.75;;;18.60;99.90;;;;;;2494005;23;20086;-72
2023/09/07 01:49:12;;;;;;;4.32;3.60;;;18.50;99.90;;;;;;2494720;23;20456;-72
2023/09/07 01:50:14;;;;;;;4.78;3.80;;;18.50;99.90;;;;;;2494370;23;20404;-72
2023/09/07 01:51:14;;;;;;;4.07;3.67;;;18.50;99.90;;;;;;2494815;23;20045;-72
2023/09/07 01:52:15;;;;;;;4.82;3.67;;;18.50;99.90;;;;;;2494656;23;20018;-72
2023/09/07 01:53:15;;;;;;;4.45;3.38;;;18.50;99.90;;;;;;2494814;23;20007;-72
2023/09/07 01:54:16;;;;;;;4.50;3.70;;;18.50;99.90;;;;;;2493765;23;20067;-72
2023/09/07 01:55:17;;;;;;;4.10;3.60;;;18.50;99.90;;;;;;2495263;23;20004;-72
2023/09/07 01:56:17;;;;;;;7.30;3.53;;;18.50;99.90;;;;;;2494664;23;19999;-72
2023/09/07 01:57:18;;;;;;;5.53;3.20;;;18.50;99.90;;;;;;2495639;23;20000;-72
2023/09/07 01:58:18;;;;;;;3.67;3.38;;;18.50;99.90;;;;;;2494675;23;20641;-72
2023/09/07 01:59:19;;;;;;;3.72;3.42;;;18.50;99.90;;;;;;2494485;23;20011;-72
2023/09/07 02:00:19;;;;;;;5.70;3.80;;;18.40;99.90;;;;;;2494461;23;20008;-72
2023/09/07 02:01:31;;;;;;;6.22;3.63;;;18.40;99.90;;;;;;2494936;23;20003;-72
2023/09/07 02:02:32;;;;;;;3.63;3.33;;;18.40;99.90;;;;;;2493190;23;20003;-72
2023/09/07 02:03:33;;;;;;;4.28;3.55;;;18.40;99.90;;;;;;2494796;23;20007;-72
2023/09/07 02:04:33;;;;;;;3.45;3.15;;;18.40;99.90;;;;;;2495012;23;20003;-72
2023/09/07 02:05:34;;;;;;;3.65;3.30;;;18.40;99.90;;;;;;2494592;23;20003;-72
2023/09/07 02:06:34;;;;;;;4.88;3.63;;;18.40;99.90;;;;;;2494536;23;20780;-72
2023/09/07 02:07:35;;;;;;;3.95;3.47;;;18.30;99.90;;;;;;2495000;23;20046;-72
2023/09/07 02:08:36;;;;;;;3.67;3.38;;;18.40;99.90;;;;;;2494351;23;20098;-72
2023/09/07 02:09:36;;;;;;;3.70;3.40;;;18.40;99.90;;;;;;2493541;23;20039;-72
2023/09/07 02:10:37;;;;;;;4.45;3.50;;;18.40;99.90;;;;;;2495065;23;20082;-72
2023/09/07 02:11:37;;;;;;;7.38;3.53;;;18.40;99.90;;;;;;2495039;23;19999;-72
2023/09/07 02:12:38;;;;;;;4.85;3.40;;;18.40;99.90;;;;;;2494499;23;20027;-72
2023/09/07 02:13:42;;;;;;;5.28;4.03;;;18.30;99.90;;;;;;2495003;23;20102;-72
2023/09/07 02:14:43;;;;;;;4.65;3.58;;;18.30;99.90;;;;;;2494827;23;20007;-72
2023/09/07 02:15:44;;;;;;;4.97;4.10;;;18.30;99.90;;;;;;2493758;23;20045;-72
2023/09/07 02:16:44;;;;;;;3.60;3.30;;;18.30;99.90;;;;;;2494185;23;20336;-72
2023/09/07 02:17:45;;;;;;;4.50;3.88;;;18.30;99.90;;;;;;2493224;23;20372;-72
2023/09/07 02:18:49;;;;;;;4.47;3.08;;;18.30;99.90;;;;;;2493356;23;20027;-72
2023/09/07 02:19:50;;;;;;;5.53;3.50;;;18.30;99.90;;;;;;2493648;23;20007;-72
2023/09/07 02:20:50;;;;;;;5.93;3.13;;;18.30;99.90;;;;;;2493895;23;20007;-72
2023/09/07 02:21:52;;;;;;;7.47;3.88;;;18.30;99.90;;;;;;2495028;23;20487;-72
2023/09/07 02:22:53;;;;;;;3.90;3.55;;;18.20;99.90;;;;;;2494733;23;20003;-72
2023/09/07 02:23:53;;;;;;;5.75;3.92;;;18.20;99.90;;;;;;2494830;23;20498;-72
2023/09/07 02:24:54;;;;;;;4.50;3.67;;;18.20;99.90;;;;;;2494543;23;20011;-72
2023/09/07 02:25:54;;;;;;;4.38;3.53;;;18.20;99.90;;;;;;2494529;23;20003;-72
2023/09/07 02:26:55;;;;;;;4.55;3.10;;;18.20;99.90;;;;;;2495477;23;20062;-72
2023/09/07 02:27:55;;;;;;;5.75;3.45;;;18.20;99.90;;;;;;2495010;23;20027;-72
2023/09/07 02:28:56;;;;;;;4.07;3.50;;;18.20;99.90;;;;;;2494869;23;19999;-72
2023/09/07 02:29:56;;;;;;;4.90;3.53;;;18.20;99.90;;;;;;2494616;23;20000;-72
2023/09/07 02:31:04;;;;;;;5.60;3.30;;;18.20;99.90;;;;;;2482142;23;20004;-72
2023/09/07 02:32:05;;;;;;;4.05;3.25;;;18.20;99.90;;;;;;2472010;23;20007;-72
2023/09/07 02:33:05;;;;;;;3.50;3.13;;;18.20;99.90;;;;;;2482792;23;20008;-72
2023/09/07 02:34:06;;;;;;;3.40;3.10;;;18.10;99.90;;;;;;2494884;23;20042;-72
2023/09/07 02:35:08;;;;;;;4.05;3.13;;;18.10;99.90;;;;;;2494938;23;20111;-72
2023/09/07 02:36:08;;;;;;;4.50;2.97;;;18.10;99.90;;;;;;2494245;23;20059;-72
2023/09/07 02:37:09;;;;;;;4.20;3.10;;;18.10;99.90;;;;;;2494984;23;20536;-72
2023/09/07 02:38:10;;;;;;;7.75;4.10;;;18.10;99.90;;;;;;2494820;23;20527;-72
2023/09/07 02:39:11;;;;;;;4.82;3.50;;;18.10;99.90;;;;;;2494189;23;19999;-72
2023/09/07 02:40:12;;;;;;;5.93;3.63;;;18.10;99.90;;;;;;2482017;23;20368;-72
2023/09/07 02:41:12;;;;;;;5.20;3.50;;;18.10;99.90;;;;;;2482210;23;20000;-72
2023/09/07 02:42:13;;;;;;;3.40;2.90;;;18.00;99.90;;;;;;2495148;23;20082;-72
2023/09/07 02:43:13;;;;;;;3.55;3.25;;;18.10;99.90;;;;;;2494313;23;20062;-72
2023/09/07 02:44:14;;;;;;;4.35;3.42;;;18.00;99.90;;;;;;2494903;23;20499;-72
2023/09/07 02:45:14;;;;;;;3.60;3.30;;;18.00;99.90;;;;;;2495128;23;20432;-72
2023/09/07 02:46:16;;;;;;;4.53;3.22;;;18.00;99.90;;;;;;2494746;23;20403;-72
2023/09/07 02:47:16;;;;;;;3.78;3.47;;;18.00;99.90;;;;;;2494681;23;20023;-72
2023/09/07 02:48:17;;;;;;;5.70;3.22;;;18.00;99.90;;;;;;2494554;23;20037;-72
2023/09/07 02:49:17;;;;;;;6.55;3.50;;;18.00;99.90;;;;;;2494426;23;20007;-72
2023/09/07 02:50:18;;;;;;;4.28;3.17;;;18.00;99.90;;;;;;2494534;23;20012;-72
2023/09/07 02:51:18;;;;;;;4.22;3.08;;;18.00;99.90;;;;;;2494664;23;20018;-72
2023/09/07 02:52:19;;;;;;;3.22;2.95;;;18.00;99.90;;;;;;2495560;23;20035;-72
2023/09/07 02:53:19;;;;;;;5.40;3.38;;;17.90;99.90;;;;;;2495099;23;20339;-72
2023/09/07 02:54:20;;;;;;;5.30;3.53;;;17.90;99.90;;;;;;2495389;23;20091;-72
2023/09/07 02:55:20;;;;;;;4.07;3.47;;;17.90;99.90;;;;;;2495295;23;20010;-72
2023/09/07 02:56:21;;;;;;;3.92;3.45;;;17.90;99.90;;;;;;2495557;23;20007;-72
2023/09/07 02:57:22;;;;;;;3.63;3.15;;;17.90;99.90;;;;;;2495286;23;20090;-72
2023/09/07 02:58:23;;;;;;;3.35;3.05;;;17.90;99.90;;;;;;2495184;23;20442;-72
2023/09/07 02:59:24;;;;;;;4.63;3.33;;;17.90;99.90;;;;;;2494718;23;20027;-72
2023/09/07 03:00:24;;;;;;;4.20;3.58;;;17.90;99.90;;;;;;2495423;23;20059;-72
2023/09/07 03:01:25;;;;;;;3.60;3.10;;;17.90;99.90;;;;;;2495347;23;20408;-72
2023/09/07 03:02:25;;;;;;;9.00;3.50;;;17.90;99.90;;;;;;2495581;23;20011;-72
2023/09/07 03:03:26;;;;;;;5.15;3.42;;;17.90;99.90;;;;;;2495135;23;20027;-72
2023/09/07 03:04:26;;;;;;;5.32;3.22;;;17.80;99.90;;;;;;2495764;23;20044;-72
2023/09/07 03:05:28;;;;;;;3.97;3.42;;;17.80;99.90;;;;;;2495233;23;20007;-72
2023/09/07 03:06:28;;;;;;;4.53;3.03;;;17.80;99.90;;;;;;2495460;23;20007;-72
2023/09/07 03:07:33;;;;;;;3.50;3.10;;;17.80;99.90;;;;;;2495353;23;20003;-72
2023/09/07 03:08:34;;;;;;;4.15;3.45;;;17.80;99.90;;;;;;2495556;23;20610;-72
2023/09/07 03:09:35;;;;;;;4.75;3.50;;;17.80;99.90;;;;;;2493999;23;20098;-72
2023/09/07 03:10:36;;;;;;;4.57;3.13;;;17.80;99.90;;;;;;2494559;23;20017;-72
2023/09/07 03:11:37;;;;;;;4.22;3.42;;;17.80;99.90;;;;;;2495219;23;20027;-72
2023/09/07 03:12:38;;;;;;;5.13;3.35;;;17.80;99.90;;;;;;2495477;23;20012;-72
2023/09/07 03:13:38;;;;;;;4.07;3.38;;;17.80;99.90;;;;;;2496015;23;20012;-72
2023/09/07 03:14:43;;;;;;;3.88;3.25;;;17.80;99.90;;;;;;2495177;23;20014;-72
2023/09/07 03:15:44;;;;;;;4.10;3.50;;;17.80;99.90;;;;;;2495738;23;20023;-72
2023/09/07 03:16:44;;;;;;;3.80;3.33;;;17.80;99.90;;;;;;2495746;23;20011;-72
2023/09/07 03:17:45;;;;;;;4.30;3.45;;;17.70;99.90;;;;;;2495699;23;20022;-72
2023/09/07 03:18:45;;;;;;;3.83;3.50;;;17.70;99.90;;;;;;2495641;23;20011;-73
2023/09/07 03:19:49;;;;;;;4.20;3.80;;;17.70;99.90;;;;;;2494410;23;20018;-72
2023/09/07 03:20:50;;;;;;;3.50;3.20;;;17.70;99.90;;;;;;2494648;23;20415;-72
2023/09/07 03:21:52;;;;;;;6.13;3.78;;;17.70;99.90;;;;;;2495551;23;20038;-72
2023/09/07 03:22:52;;;;;;;3.78;3.38;;;17.70;99.90;;;;;;2494543;23;20007;-72
2023/09/07 03:23:53;;;;;;;3.85;3.53;;;17.70;99.90;;;;;;2494707;23;20035;-72
2023/09/07 03:24:53;;;;;;;3.85;3.28;;;17.70;99.90;;;;;;2494839;23;20038;-72
2023/09/07 03:25:54;;;;;;;5.93;3.80;;;17.70;99.90;;;;;;2495060;23;20052;-72
2023/09/07 03:26:55;;;;;;;6.30;3.50;;;17.70;99.90;;;;;;2495806;23;20086;-72
2023/09/07 03:27:55;;;;;;;4.03;3.33;;;17.70;99.90;;;;;;2495079;23;20331;-72
2023/09/07 03:28:57;;;;;;;8.05;4.05;;;17.60;99.90;;;;;;2495128;23;20007;-72
2023/09/07 03:29:58;;;;;;;10.30;3.67;;;17.60;99.90;;;;;;2494340;23;20616;-72
2023/09/07 03:30:58;;;;;;;3.97;3.67;;;17.60;99.90;;;;;;2495189;23;20309;-72
2023/09/07 03:32:02;;;;;;;4.93;3.25;;;17.60;99.90;;;;;;2482562;23;20008;-72
2023/09/07 03:33:03;;;;;;;6.93;3.60;;;17.60;99.90;;;;;;2484130;23;20007;-72
2023/09/07 03:34:03;;;;;;;4.82;3.33;;;17.60;99.90;;;;;;2495155;23;20003;-72
2023/09/07 03:35:09;;;;;;;3.78;3.38;;;17.60;99.90;;;;;;2495694;23;20325;-72
2023/09/07 03:36:13;;;;;;;6.07;3.72;;;17.60;99.90;;;;;;2482750;23;20004;-72
2023/09/07 03:37:14;;;;;;;4.28;3.85;;;17.60;99.90;;;;;;2471951;23;20465;-72
2023/09/07 03:38:15;;;;;;;3.63;3.33;;;17.60;99.90;;;;;;2483168;23;20517;-72
2023/09/07 03:39:15;;;;;;;4.10;3.70;;;17.50;99.90;;;;;;2495064;23;20475;-72
2023/09/07 03:40:16;;;;;;;3.70;3.40;;;17.50;99.90;;;;;;2495065;23;20395;-72
2023/09/07 03:41:17;;;;;;;5.38;3.40;;;17.50;99.90;;;;;;2495731;23;20416;-72
2023/09/07 03:42:17;;;;;;;3.42;2.85;;;17.50;99.90;;;;;;2494950;23;20723;-72
2023/09/07 03:43:18;;;;;;;3.95;3.35;;;17.50;99.90;;;;;;2495863;23;20022;-72
2023/09/07 03:44:18;;;;;;;3.58;3.17;;;17.50;99.90;;;;;;2495018;23;20035;-72
2023/09/07 03:45:19;;;;;;;3.80;3.40;;;17.50;99.90;;;;;;2495497;23;20442;-72
2023/09/07 03:46:19;;;;;;;4.03;3.72;;;17.50;99.90;;;;;;2495238;23;20032;-72
2023/09/07 03:47:20;;;;;;;4.70;3.42;;;17.50;99.90;;;;;;2482599;23;20372;-72
2023/09/07 03:48:20;;;;;;;4.75;3.75;;;17.50;99.90;;;;;;2482769;23;19999;-72
2023/09/07 03:49:21;;;;;;;5.00;3.85;;;17.50;99.90;;;;;;2482908;23;20306;-72
2023/09/07 03:50:21;;;;;;;3.97;3.67;;;17.50;99.90;;;;;;2494896;23;20405;-72
2023/09/07 03:51:22;;;;;;;3.80;2.83;;;17.50;99.90;;;;;;2495221;23;20443;-72
2023/09/07 03:52:24;;;;;;;4.13;3.60;;;17.40;99.90;;;;;;2495608;23;20006;-72
2023/09/07 03:53:25;;;;;;;4.05;3.65;;;17.40;99.90;;;;;;2494897;23;20051;-72
2023/09/07 03:54:25;;;;;;;4.35;3.60;;;17.40;99.90;;;;;;2495315;23;20004;-72
2023/09/07 03:55:26;;;;;;;5.60;4.10;;;17.40;99.90;;;;;;2495519;23;20007;-72
2023/09/07 03:56:26;;;;;;;3.85;3.28;;;17.40;99.90;;;;;;2494901;23;20019;-72
2023/09/07 03:57:27;;;;;;;7.15;3.45;;;17.40;99.90;;;;;;2483039;23;20014;-72
2023/09/07 03:58:28;;;;;;;4.70;3.85;;;17.40;99.90;;;;;;2482555;23;20693;-72
2023/09/07 03:59:29;;;;;;;5.43;3.72;;;17.40;99.90;;;;;;2494827;23;20008;-72
2023/09/07 04:00:30;;;;;;;4.30;3.90;;;17.40;99.90;;;;;;2494364;23;20004;-72
2023/09/07 04:01:31;;;;;;;6.43;3.83;;;17.40;99.90;;;;;;2495500;23;20661;-72
2023/09/07 04:02:31;;;;;;;4.78;3.95;;;17.40;99.90;;;;;;2494986;23;20102;-72
2023/09/07 04:03:32;;;;;;;4.35;3.30;;;17.40;99.90;;;;;;2482897;23;20755;-72
2023/09/07 04:04:33;;;;;;;3.83;3.42;;;17.40;99.90;;;;;;2482610;23;20071;-72
2023/09/07 04:05:34;;;;;;;5.78;3.90;;;17.40;99.90;;;;;;2495757;23;20059;-72
2023/09/07 04:06:34;;;;;;;3.50;3.20;;;17.40;99.90;;;;;;2495092;23;20075;-72
2023/09/07 04:07:35;;;;;;;4.07;3.05;;;17.40;99.90;;;;;;2494713;23;20007;-72
2023/09/07 04:08:35;;;;;;;5.32;3.80;;;17.30;99.90;;;;;;2495208;23;20313;-72
2023/09/07 04:09:36;;;;;;;4.05;3.65;;;17.30;99.90;;;;;;2494399;23;19999;-72
2023/09/07 04:10:38;;;;;;;4.70;3.67;;;17.30;99.90;;;;;;2495026;23;20502;-72
2023/09/07 04:11:38;;;;;;;5.15;3.58;;;17.40;99.90;;;;;;2495898;23;20085;-72
2023/09/07 04:12:39;;;;;;;4.10;3.60;;;17.40;99.90;;;;;;2495033;23;20011;-72
2023/09/07 04:13:39;;;;;;;5.00;3.38;;;17.30;99.90;;;;;;2495516;23;20003;-72
2023/09/07 04:14:41;;;;;;;4.28;3.75;;;17.30;99.90;;;;;;2495439;23;20015;-72
2023/09/07 04:15:44;;;;;;;4.15;3.75;;;17.30;99.90;;;;;;2482499;23;20011;-72
2023/09/07 04:16:44;;;;;;;5.40;3.45;;;17.30;99.90;;;;;;2483349;23;20019;-72
2023/09/07 04:17:45;;;;;;;4.15;3.58;;;17.30;99.90;;;;;;2495265;23;20011;-72
2023/09/07 04:18:46;;;;;;;4.13;3.72;;;17.30;99.90;;;;;;2495004;23;20017;-72
2023/09/07 04:19:46;;;;;;;4.20;3.80;;;17.30;99.90;;;;;;2494414;23;20011;-72
2023/09/07 04:20:47;;;;;;;5.00;3.83;;;17.30;99.90;;;;;;2495136;23;20454;-72
2023/09/07 04:21:47;;;;;;;5.13;4.18;;;17.30;99.90;;;;;;2495487;23;20317;-72
2023/09/07 04:22:48;;;;;;;4.55;4.15;;;17.20;99.90;;;;;;2494684;23;20018;-72
2023/09/07 04:23:48;;;;;;;3.60;3.25;;;17.20;99.90;;;;;;2495366;23;20054;-72
2023/09/07 04:24:49;;;;;;;5.38;3.78;;;17.20;99.90;;;;;;2495227;23;20590;-72
2023/09/07 04:25:50;;;;;;;4.25;3.67;;;17.20;99.90;;;;;;2495206;23;20066;-72
2023/09/07 04:26:50;;;;;;;4.15;3.40;;;17.20;99.90;;;;;;2494819;23;20527;-72
2023/09/07 04:27:51;;;;;;;6.38;3.50;;;17.20;99.90;;;;;;2495599;23;20004;-72
2023/09/07 04:28:51;;;;;;;5.07;3.40;;;17.20;99.90;;;;;;2494482;23;20089;-72
2023/09/07 04:29:53;;;;;;;3.85;3.42;;;17.20;99.90;;;;;;2481382;23;20109;-72
2023/09/07 04:30:54;;;;;;;4.10;3.45;;;17.20;99.90;;;;;;2483390;23;20004;-72
2023/09/07 04:31:54;;;;;;;5.13;3.33;;;17.20;99.90;;;;;;2494726;23;20031;-72
2023/09/07 04:32:55;;;;;;;4.53;4.07;;;17.20;99.90;;;;;;2495299;23;20015;-72
2023/09/07 04:33:55;;;;;;;5.32;3.50;;;17.20;99.90;;;;;;2494523;23;20092;-72
2023/09/07 04:34:56;;;;;;;4.03;3.63;;;17.20;99.90;;;;;;2495072;23;20367;-72
2023/09/07 04:36:13;;;;;;;4.68;3.53;;;17.20;99.90;;;;;;2495066;23;20003;-72
2023/09/07 04:37:14;;;;;;;5.38;3.75;;;17.20;99.90;;;;;;2494980;23;20375;-72
2023/09/07 04:38:14;;;;;;;5.75;3.95;;;17.10;99.90;;;;;;2495109;23;20030;-72
2023/09/07 04:39:15;;;;;;;4.57;3.40;;;17.10;99.90;;;;;;2494136;23;20011;-73
2023/09/07 04:40:15;;;;;;;6.53;3.53;;;17.20;99.90;;;;;;2495329;23;20454;-73
2023/09/07 04:41:16;;;;;;;4.00;3.70;;;17.10;99.90;;;;;;2495080;23;20305;-72
2023/09/07 04:42:16;;;;;;;4.15;3.85;;;17.10;99.90;;;;;;2494870;23;20014;-72
2023/09/07 04:43:20;;;;;;;3.95;3.65;;;17.10;99.90;;;;;;2482645;23;20035;-72
2023/09/07 04:44:21;;;;;;;4.82;3.80;;;17.10;99.90;;;;;;2483131;23;20028;-72
2023/09/07 04:45:21;;;;;;;4.90;3.90;;;17.10;99.90;;;;;;2495200;23;20014;-72
2023/09/07 04:46:23;;;;;;;5.47;4.20;;;17.10;99.90;;;;;;2495527;23;20040;-72
2023/09/07 04:47:23;;;;;;;3.78;3.40;;;17.10;99.90;;;;;;2482870;23;20008;-73
2023/09/07 04:48:26;;;;;;;4.32;3.92;;;17.10;99.90;;;;;;2471656;24;20102;-73
2023/09/07 04:49:27;;;;;;;5.53;3.83;;;17.10;99.90;;;;;;2482795;23;20369;-73
2023/09/07 04:50:28;;;;;;;4.40;3.80;;;17.00;99.90;;;;;;2495173;23;20000;-72
2023/09/07 04:51:28;;;;;;;4.18;3.80;;;17.00;99.90;;;;;;2494943;23;20054;-72
2023/09/07 04:52:29;;;;;;;4.90;3.63;;;17.10;99.90;;;;;;2494651;23;20004;-72
2023/09/07 04:53:31;;;;;;;4.50;4.10;;;17.10;99.90;;;;;;2494995;23;20007;-72
2023/09/07 04:54:32;;;;;;;5.18;4.45;;;17.00;99.90;;;;;;2494724;23;20067;-72
2023/09/07 04:55:37;;;;;;;5.22;4.05;;;17.10;99.90;;;;;;2495033;23;20007;-72
2023/09/07 04:56:38;;;;;;;4.40;3.75;;;17.00;99.90;;;;;;2495416;23;20011;-72
2023/09/07 04:57:38;;;;;;;4.00;3.63;;;17.00;99.90;;;;;;2495117;23;20035;-72
2023/09/07 04:58:39;;;;;;;4.30;3.92;;;17.00;99.90;;;;;;2495090;23;20014;-72
2023/09/07 04:59:40;;;;;;;6.10;4.25;;;17.00;99.90;;;;;;2494401;23;20072;-72
2023/09/07 05:00:40;;;;;;;6.35;4.50;;;17.00;99.90;;;;;;2495060;23;20071;-72
2023/09/07 05:01:41;;;;;;;6.45;3.75;;;17.00;99.90;;;;;;2494535;23;20042;-73
2023/09/07 05:02:43;;;;;;;4.93;3.83;;;17.00;99.90;;;;;;2494611;23;20015;-72
2023/09/07 05:03:43;;;;;;;7.72;4.32;;;17.00;99.90;;;;;;2494740;23;20003;-72
2023/09/07 05:04:44;;;;;;;5.63;3.83;;;17.00;99.90;;;;;;2494697;23;20003;-72
2023/09/07 05:05:50;;;;;;;4.22;3.83;;;17.00;99.90;;;;;;2495331;23;20007;-72
2023/09/07 05:06:51;;;;;;;5.60;4.88;;;17.00;99.90;;;;;;2495231;23;20086;-72
2023/09/07 05:07:51;;;;;;;4.95;4.43;;;16.90;99.90;;;;;;2494324;23;20010;-72
2023/09/07 05:08:52;;;;;;;5.07;4.28;;;16.90;99.90;;;;;;2482371;23;20336;-72
2023/09/07 05:09:52;;;;;;;4.40;3.85;;;17.00;99.90;;;;;;2482020;23;20040;-73
2023/09/07 05:11:00;;;;;;;5.55;4.20;;;16.90;99.90;;;;;;2495348;23;20487;-72
2023/09/07 05:12:00;;;;;;;8.63;5.10;;;16.90;99.90;;;;;;2494788;23;20007;-72
2023/09/07 05:13:01;;;;;;;7.85;4.78;;;16.90;99.90;;;;;;2495072;23;20010;-72
2023/09/07 05:14:02;;;;;;;5.47;4.00;;;16.90;99.90;;;;;;2482898;23;20088;-72
2023/09/07 05:15:06;;;;;;;5.15;4.65;;;16.90;99.90;;;;;;2481836;23;20000;-72
2023/09/07 05:16:06;;;;;;;5.93;4.20;;;17.00;99.90;;;;;;2495056;23;20014;-72
2023/09/07 05:17:07;;;;;;;5.60;4.47;;;16.90;99.90;;;;;;2494546;23;20420;-72
2023/09/07 05:18:07;;;;;;;5.47;4.97;;;17.00;99.90;;;;;;2495462;23;20436;-72